sensor_id;sensor_type;location;lat;lon;timestamp;P1;durP1;ratioP1;P2;durP2;ratioP2
29984;SDS011;17387;42.690;23.328;2022-10-16T00:01:20;24.15;;;16.52;;
29984;SDS011;17387;42.690;23.328;2022-10-16T00:03:47;23.08;;;17.42;;
29984;SDS011;17387;42.690;23.328;2022-10-16T00:06:14;27.33;;;17.55;;
29984;SDS011;17387;42.690;23.328;2022-10-16T00:08:40;25.77;;;17.98;;
29984;SDS011;17387;42.690;23.328;2022-10-16T00:11:11;30.63;;;19.02;;
29984;SDS011;17387;42.690;23.328;2022-10-16T00:13:50;30.63;;;19.67;;
29984;SDS011;17387;42.690;23.328;2022-10-16T00:16:19;37.67;;;20.17;;
29984;SDS011;17387;42.690;23.328;2022-10-16T00:18:45;35.13;;;21.42;;
29984;SDS011;17387;42.690;23.328;2022-10-16T00:21:20;27.17;;;19.17;;
29984;SDS011;17387;42.690;23.328;2022-10-16T00:23:58;28.88;;;20.10;;
29984;SDS011;17387;42.690;23.328;2022-10-16T00:26:25;35.03;;;22.27;;
29984;SDS011;17387;42.690;23.328;2022-10-16T00:28:52;35.83;;;21.65;;
29984;SDS011;17387;42.690;23.328;2022-10-16T00:31:18;36.75;;;22.58;;
29984;SDS011;17387;42.690;23.328;2022-10-16T00:33:45;31.45;;;21.77;;
29984;SDS011;17387;42.690;23.328;2022-10-16T00:36:12;32.50;;;21.30;;
29984;SDS011;17387;42.690;23.328;2022-10-16T00:38:39;33.92;;;22.33;;
29984;SDS011;17387;42.690;23.328;2022-10-16T00:41:05;31.95;;;21.98;;
29984;SDS011;17387;42.690;23.328;2022-10-16T00:46:04;30.98;;;21.25;;
29984;SDS011;17387;42.690;23.328;2022-10-16T00:51:28;29.25;;;19.50;;
29984;SDS011;17387;42.690;23.328;2022-10-16T00:54:00;27.40;;;19.60;;
29984;SDS011;17387;42.690;23.328;2022-10-16T00:59:06;28.38;;;19.00;;
29984;SDS011;17387;42.690;23.328;2022-10-16T01:04:14;25.08;;;17.92;;
29984;SDS011;17387;42.690;23.328;2022-10-16T01:09:22;27.00;;;17.70;;
29984;SDS011;17387;42.690;23.328;2022-10-16T01:12:14;30.15;;;18.52;;
29984;SDS011;17387;42.690;23.328;2022-10-16T01:14:54;26.55;;;17.77;;
29984;SDS011;17387;42.690;23.328;2022-10-16T01:27:47;29.65;;;20.33;;
29984;SDS011;17387;42.690;23.328;2022-10-16T01:30:16;30.63;;;19.15;;
29984;SDS011;17387;42.690;23.328;2022-10-16T01:32:57;30.70;;;19.63;;
29984;SDS011;17387;42.690;23.328;2022-10-16T01:35:45;30.65;;;20.42;;
29984;SDS011;17387;42.690;23.328;2022-10-16T01:38:23;32.90;;;20.95;;
29984;SDS011;17387;42.690;23.328;2022-10-16T01:41:00;31.35;;;21.75;;
29984;SDS011;17387;42.690;23.328;2022-10-16T01:43:32;35.45;;;22.58;;
29984;SDS011;17387;42.690;23.328;2022-10-16T01:46:00;35.67;;;22.98;;
29984;SDS011;17387;42.690;23.328;2022-10-16T01:48:27;33.85;;;23.25;;
29984;SDS011;17387;42.690;23.328;2022-10-16T01:51:06;34.80;;;22.85;;
29984;SDS011;17387;42.690;23.328;2022-10-16T01:53:35;33.20;;;22.27;;
29984;SDS011;17387;42.690;23.328;2022-10-16T01:56:02;37.17;;;22.65;;
29984;SDS011;17387;42.690;23.328;2022-10-16T01:58:33;36.93;;;23.60;;
29984;SDS011;17387;42.690;23.328;2022-10-16T02:01:02;33.78;;;21.95;;
29984;SDS011;17387;42.690;23.328;2022-10-16T02:16:19;26.48;;;18.13;;
29984;SDS011;17387;42.690;23.328;2022-10-16T02:24:01;21.00;;;14.05;;
29984;SDS011;17387;42.690;23.328;2022-10-16T02:29:26;20.15;;;12.30;;
29984;SDS011;17387;42.690;23.328;2022-10-16T02:32:01;17.27;;;11.73;;
29984;SDS011;17387;42.690;23.328;2022-10-16T02:34:30;15.80;;;11.38;;
29984;SDS011;17387;42.690;23.328;2022-10-16T02:36:58;17.35;;;10.98;;
29984;SDS011;17387;42.690;23.328;2022-10-16T02:39:25;16.95;;;11.55;;
29984;SDS011;17387;42.690;23.328;2022-10-16T02:41:53;15.45;;;10.90;;
29984;SDS011;17387;42.690;23.328;2022-10-16T02:46:53;19.55;;;12.93;;
29984;SDS011;17387;42.690;23.328;2022-10-16T02:49:19;16.95;;;12.23;;
29984;SDS011;17387;42.690;23.328;2022-10-16T02:54:18;20.30;;;12.98;;
29984;SDS011;17387;42.690;23.328;2022-10-16T03:01:54;23.98;;;14.27;;
29984;SDS011;17387;42.690;23.328;2022-10-16T03:06:54;18.48;;;13.55;;
29984;SDS011;17387;42.690;23.328;2022-10-16T03:11:55;20.33;;;13.18;;
29984;SDS011;17387;42.690;23.328;2022-10-16T03:16:55;20.08;;;12.70;;
29984;SDS011;17387;42.690;23.328;2022-10-16T03:19:21;21.50;;;13.20;;
29984;SDS011;17387;42.690;23.328;2022-10-16T03:21:47;18.50;;;12.68;;
29984;SDS011;17387;42.690;23.328;2022-10-16T03:24:12;24.35;;;12.50;;
29984;SDS011;17387;42.690;23.328;2022-10-16T03:26:37;18.92;;;12.35;;
29984;SDS011;17387;42.690;23.328;2022-10-16T03:29:03;17.52;;;12.05;;
29984;SDS011;17387;42.690;23.328;2022-10-16T03:31:29;21.55;;;12.85;;
29984;SDS011;17387;42.690;23.328;2022-10-16T03:33:55;19.08;;;12.23;;
29984;SDS011;17387;42.690;23.328;2022-10-16T03:36:20;21.63;;;12.90;;
29984;SDS011;17387;42.690;23.328;2022-10-16T03:38:46;25.38;;;13.45;;
29984;SDS011;17387;42.690;23.328;2022-10-16T03:41:11;21.98;;;13.70;;
29984;SDS011;17387;42.690;23.328;2022-10-16T03:43:36;22.52;;;13.98;;
29984;SDS011;17387;42.690;23.328;2022-10-16T03:46:02;22.25;;;14.45;;
29984;SDS011;17387;42.690;23.328;2022-10-16T03:48:28;20.42;;;13.85;;
29984;SDS011;17387;42.690;23.328;2022-10-16T03:50:54;23.77;;;14.57;;
29984;SDS011;17387;42.690;23.328;2022-10-16T03:53:19;23.10;;;14.50;;
29984;SDS011;17387;42.690;23.328;2022-10-16T03:55:45;24.88;;;15.43;;
29984;SDS011;17387;42.690;23.328;2022-10-16T03:58:10;22.75;;;14.85;;
29984;SDS011;17387;42.690;23.328;2022-10-16T04:00:39;23.83;;;15.57;;
29984;SDS011;17387;42.690;23.328;2022-10-16T04:03:08;22.90;;;16.15;;
29984;SDS011;17387;42.690;23.328;2022-10-16T04:05:34;28.75;;;16.10;;
29984;SDS011;17387;42.690;23.328;2022-10-16T04:07:59;22.83;;;15.90;;
29984;SDS011;17387;42.690;23.328;2022-10-16T04:10:25;23.60;;;15.25;;
29984;SDS011;17387;42.690;23.328;2022-10-16T04:12:50;23.50;;;15.20;;
29984;SDS011;17387;42.690;23.328;2022-10-16T04:15:16;27.23;;;15.23;;
29984;SDS011;17387;42.690;23.328;2022-10-16T04:17:41;25.85;;;16.70;;
29984;SDS011;17387;42.690;23.328;2022-10-16T04:20:06;30.70;;;16.90;;
29984;SDS011;17387;42.690;23.328;2022-10-16T04:22:32;22.67;;;15.68;;
29984;SDS011;17387;42.690;23.328;2022-10-16T04:24:57;26.52;;;16.08;;
29984;SDS011;17387;42.690;23.328;2022-10-16T04:27:23;22.77;;;15.70;;
29984;SDS011;17387;42.690;23.328;2022-10-16T04:29:48;26.90;;;16.45;;
29984;SDS011;17387;42.690;23.328;2022-10-16T04:32:14;33.42;;;19.40;;
29984;SDS011;17387;42.690;23.328;2022-10-16T04:34:39;28.13;;;18.25;;
29984;SDS011;17387;42.690;23.328;2022-10-16T04:37:05;29.08;;;18.85;;
29984;SDS011;17387;42.690;23.328;2022-10-16T04:39:30;28.52;;;17.05;;
29984;SDS011;17387;42.690;23.328;2022-10-16T04:41:56;24.15;;;15.55;;
29984;SDS011;17387;42.690;23.328;2022-10-16T04:44:21;21.13;;;15.52;;
29984;SDS011;17387;42.690;23.328;2022-10-16T04:46:47;25.63;;;15.50;;
29984;SDS011;17387;42.690;23.328;2022-10-16T04:49:12;25.17;;;15.85;;
29984;SDS011;17387;42.690;23.328;2022-10-16T04:51:38;25.50;;;16.90;;
29984;SDS011;17387;42.690;23.328;2022-10-16T04:54:03;25.88;;;16.23;;
29984;SDS011;17387;42.690;23.328;2022-10-16T04:56:28;29.50;;;16.13;;
29984;SDS011;17387;42.690;23.328;2022-10-16T04:58:54;32.83;;;17.40;;
29984;SDS011;17387;42.690;23.328;2022-10-16T05:01:20;33.40;;;17.58;;
29984;SDS011;17387;42.690;23.328;2022-10-16T05:03:46;29.88;;;16.20;;
29984;SDS011;17387;42.690;23.328;2022-10-16T05:06:12;26.88;;;15.30;;
29984;SDS011;17387;42.690;23.328;2022-10-16T05:08:37;24.73;;;13.98;;
29984;SDS011;17387;42.690;23.328;2022-10-16T05:11:03;22.50;;;13.40;;
29984;SDS011;17387;42.690;23.328;2022-10-16T05:13:28;21.88;;;13.40;;
29984;SDS011;17387;42.690;23.328;2022-10-16T05:15:54;26.63;;;13.63;;
29984;SDS011;17387;42.690;23.328;2022-10-16T05:18:19;24.38;;;14.77;;
29984;SDS011;17387;42.690;23.328;2022-10-16T05:20:44;27.67;;;14.60;;
29984;SDS011;17387;42.690;23.328;2022-10-16T05:23:10;35.85;;;26.52;;
29984;SDS011;17387;42.690;23.328;2022-10-16T05:25:36;22.42;;;15.43;;
29984;SDS011;17387;42.690;23.328;2022-10-16T05:28:02;26.27;;;14.55;;
29984;SDS011;17387;42.690;23.328;2022-10-16T05:30:28;23.60;;;14.43;;
29984;SDS011;17387;42.690;23.328;2022-10-16T05:32:53;24.85;;;13.50;;
29984;SDS011;17387;42.690;23.328;2022-10-16T05:35:22;25.42;;;14.68;;
29984;SDS011;17387;42.690;23.328;2022-10-16T05:37:47;20.08;;;13.93;;
29984;SDS011;17387;42.690;23.328;2022-10-16T05:40:13;23.33;;;13.10;;
29984;SDS011;17387;42.690;23.328;2022-10-16T05:42:39;20.55;;;13.43;;
29984;SDS011;17387;42.690;23.328;2022-10-16T05:45:06;19.63;;;13.57;;
29984;SDS011;17387;42.690;23.328;2022-10-16T05:47:34;20.55;;;13.50;;
29984;SDS011;17387;42.690;23.328;2022-10-16T05:49:59;21.77;;;13.98;;
29984;SDS011;17387;42.690;23.328;2022-10-16T05:52:26;23.42;;;14.60;;
29984;SDS011;17387;42.690;23.328;2022-10-16T05:54:51;22.90;;;14.25;;
29984;SDS011;17387;42.690;23.328;2022-10-16T05:57:17;26.40;;;16.40;;
29984;SDS011;17387;42.690;23.328;2022-10-16T05:59:42;27.02;;;15.57;;
29984;SDS011;17387;42.690;23.328;2022-10-16T06:02:10;24.92;;;16.20;;
29984;SDS011;17387;42.690;23.328;2022-10-16T06:04:37;30.75;;;18.95;;
29984;SDS011;17387;42.690;23.328;2022-10-16T06:07:03;22.35;;;16.33;;
29984;SDS011;17387;42.690;23.328;2022-10-16T06:09:28;25.75;;;17.42;;
29984;SDS011;17387;42.690;23.328;2022-10-16T06:11:53;28.23;;;17.35;;
29984;SDS011;17387;42.690;23.328;2022-10-16T06:14:19;27.70;;;16.27;;
29984;SDS011;17387;42.690;23.328;2022-10-16T06:16:44;28.10;;;17.10;;
29984;SDS011;17387;42.690;23.328;2022-10-16T06:19:13;27.00;;;17.67;;
29984;SDS011;17387;42.690;23.328;2022-10-16T06:21:38;27.27;;;16.45;;
29984;SDS011;17387;42.690;23.328;2022-10-16T06:24:04;27.98;;;16.70;;
29984;SDS011;17387;42.690;23.328;2022-10-16T06:26:30;37.90;;;24.00;;
29984;SDS011;17387;42.690;23.328;2022-10-16T06:28:57;26.08;;;16.00;;
29984;SDS011;17387;42.690;23.328;2022-10-16T06:31:24;30.10;;;17.50;;
29984;SDS011;17387;42.690;23.328;2022-10-16T06:33:56;24.10;;;16.75;;
29984;SDS011;17387;42.690;23.328;2022-10-16T06:36:22;37.08;;;21.52;;
29984;SDS011;17387;42.690;23.328;2022-10-16T06:38:48;48.40;;;28.33;;
29984;SDS011;17387;42.690;23.328;2022-10-16T06:41:18;26.65;;;16.45;;
29984;SDS011;17387;42.690;23.328;2022-10-16T06:43:45;23.38;;;15.30;;
29984;SDS011;17387;42.690;23.328;2022-10-16T06:46:12;28.52;;;16.63;;
29984;SDS011;17387;42.690;23.328;2022-10-16T06:48:39;32.15;;;17.25;;
29984;SDS011;17387;42.690;23.328;2022-10-16T06:51:05;29.15;;;16.42;;
29984;SDS011;17387;42.690;23.328;2022-10-16T06:53:34;24.83;;;16.45;;
29984;SDS011;17387;42.690;23.328;2022-10-16T06:58:33;34.13;;;21.27;;
29984;SDS011;17387;42.690;23.328;2022-10-16T07:00:59;25.90;;;15.85;;
29984;SDS011;17387;42.690;23.328;2022-10-16T07:03:24;21.08;;;15.82;;
29984;SDS011;17387;42.690;23.328;2022-10-16T07:05:50;26.17;;;16.08;;
29984;SDS011;17387;42.690;23.328;2022-10-16T07:08:15;23.90;;;16.45;;
29984;SDS011;17387;42.690;23.328;2022-10-16T07:10:40;31.77;;;17.85;;
29984;SDS011;17387;42.690;23.328;2022-10-16T07:13:06;26.52;;;17.50;;
29984;SDS011;17387;42.690;23.328;2022-10-16T07:15:32;26.48;;;16.80;;
29984;SDS011;17387;42.690;23.328;2022-10-16T07:17:58;33.60;;;20.15;;
29984;SDS011;17387;42.690;23.328;2022-10-16T07:20:23;25.27;;;16.10;;
29984;SDS011;17387;42.690;23.328;2022-10-16T07:22:49;27.30;;;16.98;;
29984;SDS011;17387;42.690;23.328;2022-10-16T07:25:14;31.05;;;18.52;;
29984;SDS011;17387;42.690;23.328;2022-10-16T07:27:39;26.95;;;17.80;;
29984;SDS011;17387;42.690;23.328;2022-10-16T07:30:05;23.40;;;16.73;;
29984;SDS011;17387;42.690;23.328;2022-10-16T07:32:31;29.02;;;18.48;;
29984;SDS011;17387;42.690;23.328;2022-10-16T07:34:57;24.58;;;15.63;;
29984;SDS011;17387;42.690;23.328;2022-10-16T07:37:22;24.95;;;16.63;;
29984;SDS011;17387;42.690;23.328;2022-10-16T07:39:47;30.30;;;20.00;;
29984;SDS011;17387;42.690;23.328;2022-10-16T07:42:13;23.75;;;14.93;;
29984;SDS011;17387;42.690;23.328;2022-10-16T07:44:38;18.02;;;13.52;;
29984;SDS011;17387;42.690;23.328;2022-10-16T07:47:05;25.42;;;15.13;;
29984;SDS011;17387;42.690;23.328;2022-10-16T07:49:30;28.08;;;14.35;;
29984;SDS011;17387;42.690;23.328;2022-10-16T07:51:56;19.40;;;12.95;;
29984;SDS011;17387;42.690;23.328;2022-10-16T07:54:21;20.00;;;12.90;;
29984;SDS011;17387;42.690;23.328;2022-10-16T07:56:46;14.23;;;12.13;;
29984;SDS011;17387;42.690;23.328;2022-10-16T07:59:12;17.83;;;11.75;;
29984;SDS011;17387;42.690;23.328;2022-10-16T08:01:38;16.38;;;11.77;;
29984;SDS011;17387;42.690;23.328;2022-10-16T08:04:03;20.17;;;11.13;;
29984;SDS011;17387;42.690;23.328;2022-10-16T08:06:30;26.85;;;14.73;;
29984;SDS011;17387;42.690;23.328;2022-10-16T08:09:01;19.60;;;12.73;;
29984;SDS011;17387;42.690;23.328;2022-10-16T08:11:26;23.90;;;13.63;;
29984;SDS011;17387;42.690;23.328;2022-10-16T08:13:54;23.23;;;14.18;;
29984;SDS011;17387;42.690;23.328;2022-10-16T08:16:20;20.25;;;13.45;;
29984;SDS011;17387;42.690;23.328;2022-10-16T08:18:49;25.67;;;14.32;;
29984;SDS011;17387;42.690;23.328;2022-10-16T08:21:17;15.93;;;11.45;;
29984;SDS011;17387;42.690;23.328;2022-10-16T08:23:48;14.15;;;9.95;;
29984;SDS011;17387;42.690;23.328;2022-10-16T08:26:14;31.05;;;18.83;;
29984;SDS011;17387;42.690;23.328;2022-10-16T08:28:40;17.20;;;10.10;;
29984;SDS011;17387;42.690;23.328;2022-10-16T08:31:06;19.73;;;10.25;;
29984;SDS011;17387;42.690;23.328;2022-10-16T08:33:36;20.10;;;10.38;;
29984;SDS011;17387;42.690;23.328;2022-10-16T08:36:03;20.20;;;12.88;;
29984;SDS011;17387;42.690;23.328;2022-10-16T08:38:30;16.98;;;10.10;;
29984;SDS011;17387;42.690;23.328;2022-10-16T08:40:58;17.40;;;10.10;;
29984;SDS011;17387;42.690;23.328;2022-10-16T08:49:28;17.65;;;8.48;;
29984;SDS011;17387;42.690;23.328;2022-10-16T08:51:55;17.90;;;10.43;;
29984;SDS011;17387;42.690;23.328;2022-10-16T08:54:31;11.68;;;7.03;;
29984;SDS011;17387;42.690;23.328;2022-10-16T08:57:19;10.75;;;7.90;;
29984;SDS011;17387;42.690;23.328;2022-10-16T08:59:46;23.43;;;11.93;;
29984;SDS011;17387;42.690;23.328;2022-10-16T09:02:32;9.43;;;5.82;;
29984;SDS011;17387;42.690;23.328;2022-10-16T09:21:15;8.77;;;5.20;;
29984;SDS011;17387;42.690;23.328;2022-10-16T09:23:46;22.13;;;12.53;;
29984;SDS011;17387;42.690;23.328;2022-10-16T09:26:13;15.90;;;8.25;;
29984;SDS011;17387;42.690;23.328;2022-10-16T09:28:41;10.77;;;6.45;;
29984;SDS011;17387;42.690;23.328;2022-10-16T09:31:18;8.95;;;5.32;;
29984;SDS011;17387;42.690;23.328;2022-10-16T09:34:01;15.40;;;8.23;;
29984;SDS011;17387;42.690;23.328;2022-10-16T09:36:31;11.32;;;6.82;;
29984;SDS011;17387;42.690;23.328;2022-10-16T09:39:06;9.00;;;5.30;;
29984;SDS011;17387;42.690;23.328;2022-10-16T09:41:34;10.98;;;6.88;;
29984;SDS011;17387;42.690;23.328;2022-10-16T09:44:02;11.80;;;7.13;;
29984;SDS011;17387;42.690;23.328;2022-10-16T09:46:33;9.63;;;5.55;;
29984;SDS011;17387;42.690;23.328;2022-10-16T09:49:02;9.32;;;5.80;;
29984;SDS011;17387;42.690;23.328;2022-10-16T09:51:31;8.52;;;5.47;;
29984;SDS011;17387;42.690;23.328;2022-10-16T09:56:32;10.77;;;6.32;;
29984;SDS011;17387;42.690;23.328;2022-10-16T09:59:01;17.27;;;10.43;;
29984;SDS011;17387;42.690;23.328;2022-10-16T10:01:36;13.23;;;7.90;;
29984;SDS011;17387;42.690;23.328;2022-10-16T10:04:03;8.50;;;5.55;;
29984;SDS011;17387;42.690;23.328;2022-10-16T10:06:31;8.82;;;5.20;;
29984;SDS011;17387;42.690;23.328;2022-10-16T10:09:17;8.98;;;4.43;;
29984;SDS011;17387;42.690;23.328;2022-10-16T10:11:48;5.97;;;4.25;;
29984;SDS011;17387;42.690;23.328;2022-10-16T10:14:18;9.88;;;5.90;;
29984;SDS011;17387;42.690;23.328;2022-10-16T10:16:47;8.80;;;4.72;;
29984;SDS011;17387;42.690;23.328;2022-10-16T10:19:17;8.15;;;4.43;;
29984;SDS011;17387;42.690;23.328;2022-10-16T10:21:49;7.88;;;4.90;;
29984;SDS011;17387;42.690;23.328;2022-10-16T10:24:17;11.82;;;7.90;;
29984;SDS011;17387;42.690;23.328;2022-10-16T10:26:58;12.32;;;5.95;;
29984;SDS011;17387;42.690;23.328;2022-10-16T10:35:14;11.02;;;7.00;;
29984;SDS011;17387;42.690;23.328;2022-10-16T10:40:34;6.47;;;5.22;;
29984;SDS011;17387;42.690;23.328;2022-10-16T10:43:23;8.70;;;5.30;;
29984;SDS011;17387;42.690;23.328;2022-10-16T10:45:54;9.30;;;6.07;;
29984;SDS011;17387;42.690;23.328;2022-10-16T10:48:49;10.20;;;6.40;;
29984;SDS011;17387;42.690;23.328;2022-10-16T11:00:21;7.93;;;5.00;;
29984;SDS011;17387;42.690;23.328;2022-10-16T11:05:50;13.88;;;5.47;;
29984;SDS011;17387;42.690;23.328;2022-10-16T11:10:58;9.57;;;5.25;;
29984;SDS011;17387;42.690;23.328;2022-10-16T11:16:00;8.25;;;5.63;;
29984;SDS011;17387;42.690;23.328;2022-10-16T11:18:44;10.80;;;7.18;;
29984;SDS011;17387;42.690;23.328;2022-10-16T11:21:21;9.45;;;4.70;;
29984;SDS011;17387;42.690;23.328;2022-10-16T11:23:57;34.22;;;17.02;;
29984;SDS011;17387;42.690;23.328;2022-10-16T11:26:28;8.95;;;6.30;;
29984;SDS011;17387;42.690;23.328;2022-10-16T11:29:00;12.02;;;6.95;;
29984;SDS011;17387;42.690;23.328;2022-10-16T11:31:40;10.65;;;6.03;;
29984;SDS011;17387;42.690;23.328;2022-10-16T11:34:25;7.18;;;5.00;;
29984;SDS011;17387;42.690;23.328;2022-10-16T11:39:29;6.78;;;4.50;;
29984;SDS011;17387;42.690;23.328;2022-10-16T11:47:08;10.20;;;5.22;;
29984;SDS011;17387;42.690;23.328;2022-10-16T11:49:47;9.02;;;5.95;;
29984;SDS011;17387;42.690;23.328;2022-10-16T11:52:24;6.45;;;4.00;;
29984;SDS011;17387;42.690;23.328;2022-10-16T11:57:32;6.18;;;4.40;;
29984;SDS011;17387;42.690;23.328;2022-10-16T12:03:16;8.15;;;4.00;;
29984;SDS011;17387;42.690;23.328;2022-10-16T12:06:04;9.73;;;5.20;;
29984;SDS011;17387;42.690;23.328;2022-10-16T12:08:33;15.57;;;8.07;;
29984;SDS011;17387;42.690;23.328;2022-10-16T12:11:09;10.48;;;6.03;;
29984;SDS011;17387;42.690;23.328;2022-10-16T12:13:44;8.43;;;5.05;;
29984;SDS011;17387;42.690;23.328;2022-10-16T12:18:39;10.82;;;4.63;;
29984;SDS011;17387;42.690;23.328;2022-10-16T12:21:05;12.15;;;7.53;;
29984;SDS011;17387;42.690;23.328;2022-10-16T12:23:33;9.07;;;5.90;;
29984;SDS011;17387;42.690;23.328;2022-10-16T12:26:02;9.88;;;5.38;;
29984;SDS011;17387;42.690;23.328;2022-10-16T12:28:29;11.82;;;6.95;;
29984;SDS011;17387;42.690;23.328;2022-10-16T12:31:00;7.63;;;5.00;;
29984;SDS011;17387;42.690;23.328;2022-10-16T12:36:07;25.52;;;12.98;;
29984;SDS011;17387;42.690;23.328;2022-10-16T12:41:12;6.50;;;4.07;;
29984;SDS011;17387;42.690;23.328;2022-10-16T12:43:46;9.05;;;5.00;;
29984;SDS011;17387;42.690;23.328;2022-10-16T12:48:39;6.05;;;3.85;;
29984;SDS011;17387;42.690;23.328;2022-10-16T12:53:46;13.90;;;6.32;;
29984;SDS011;17387;42.690;23.328;2022-10-16T12:56:28;9.95;;;5.72;;
29984;SDS011;17387;42.690;23.328;2022-10-16T13:17:42;7.75;;;3.80;;
29984;SDS011;17387;42.690;23.328;2022-10-16T13:20:20;11.13;;;8.40;;
29984;SDS011;17387;42.690;23.328;2022-10-16T13:28:35;14.00;;;4.78;;
29984;SDS011;17387;42.690;23.328;2022-10-16T13:31:03;12.18;;;6.32;;
29984;SDS011;17387;42.690;23.328;2022-10-16T13:33:36;8.77;;;3.55;;
29984;SDS011;17387;42.690;23.328;2022-10-16T13:36:04;11.13;;;4.43;;
29984;SDS011;17387;42.690;23.328;2022-10-16T13:38:32;11.45;;;4.65;;
29984;SDS011;17387;42.690;23.328;2022-10-16T13:41:05;7.57;;;4.83;;
29984;SDS011;17387;42.690;23.328;2022-10-16T13:48:43;12.35;;;7.10;;
29984;SDS011;17387;42.690;23.328;2022-10-16T13:51:14;4.68;;;3.03;;
29984;SDS011;17387;42.690;23.328;2022-10-16T13:53:41;13.27;;;5.72;;
29984;SDS011;17387;42.690;23.328;2022-10-16T13:56:12;4.93;;;2.90;;
29984;SDS011;17387;42.690;23.328;2022-10-16T13:58:39;6.15;;;3.30;;
29984;SDS011;17387;42.690;23.328;2022-10-16T14:01:11;4.70;;;3.13;;
29984;SDS011;17387;42.690;23.328;2022-10-16T14:03:51;4.18;;;2.97;;
29984;SDS011;17387;42.690;23.328;2022-10-16T14:06:18;4.13;;;3.53;;
29984;SDS011;17387;42.690;23.328;2022-10-16T14:09:06;7.07;;;3.20;;
29984;SDS011;17387;42.690;23.328;2022-10-16T14:11:41;4.53;;;3.50;;
29984;SDS011;17387;42.690;23.328;2022-10-16T14:14:13;11.73;;;6.22;;
29984;SDS011;17387;42.690;23.328;2022-10-16T14:16:40;4.93;;;2.80;;
29984;SDS011;17387;42.690;23.328;2022-10-16T14:19:12;5.95;;;2.70;;
29984;SDS011;17387;42.690;23.328;2022-10-16T14:21:59;9.85;;;6.22;;
29984;SDS011;17387;42.690;23.328;2022-10-16T14:26:55;7.05;;;4.00;;
29984;SDS011;17387;42.690;23.328;2022-10-16T14:29:21;9.95;;;5.63;;
29984;SDS011;17387;42.690;23.328;2022-10-16T14:31:55;4.18;;;3.38;;
29984;SDS011;17387;42.690;23.328;2022-10-16T14:34:34;10.02;;;6.13;;
29984;SDS011;17387;42.690;23.328;2022-10-16T14:39:59;13.57;;;5.88;;
29984;SDS011;17387;42.690;23.328;2022-10-16T14:42:27;17.23;;;3.65;;
29984;SDS011;17387;42.690;23.328;2022-10-16T14:44:53;6.25;;;3.40;;
29984;SDS011;17387;42.690;23.328;2022-10-16T14:47:23;11.38;;;4.57;;
29984;SDS011;17387;42.690;23.328;2022-10-16T14:49:52;12.07;;;5.32;;
29984;SDS011;17387;42.690;23.328;2022-10-16T14:52:20;8.48;;;3.38;;
29984;SDS011;17387;42.690;23.328;2022-10-16T14:54:48;13.43;;;7.95;;
29984;SDS011;17387;42.690;23.328;2022-10-16T14:57:21;8.60;;;3.65;;
29984;SDS011;17387;42.690;23.328;2022-10-16T14:59:49;15.07;;;5.82;;
29984;SDS011;17387;42.690;23.328;2022-10-16T15:04:50;7.15;;;3.20;;
29984;SDS011;17387;42.690;23.328;2022-10-16T15:07:15;6.13;;;3.65;;
29984;SDS011;17387;42.690;23.328;2022-10-16T15:09:41;7.47;;;3.70;;
29984;SDS011;17387;42.690;23.328;2022-10-16T15:12:06;9.60;;;4.28;;
29984;SDS011;17387;42.690;23.328;2022-10-16T15:14:31;12.23;;;5.50;;
29984;SDS011;17387;42.690;23.328;2022-10-16T15:16:57;10.52;;;3.95;;
29984;SDS011;17387;42.690;23.328;2022-10-16T15:19:22;6.63;;;4.30;;
29984;SDS011;17387;42.690;23.328;2022-10-16T15:21:48;12.88;;;7.75;;
29984;SDS011;17387;42.690;23.328;2022-10-16T15:24:14;5.45;;;3.28;;
29984;SDS011;17387;42.690;23.328;2022-10-16T15:26:39;12.35;;;5.65;;
29984;SDS011;17387;42.690;23.328;2022-10-16T15:29:05;12.15;;;4.97;;
29984;SDS011;17387;42.690;23.328;2022-10-16T15:31:31;10.40;;;4.20;;
29984;SDS011;17387;42.690;23.328;2022-10-16T15:33:57;8.40;;;4.38;;
29984;SDS011;17387;42.690;23.328;2022-10-16T15:36:31;8.45;;;4.70;;
29984;SDS011;17387;42.690;23.328;2022-10-16T15:38:59;4.68;;;3.50;;
29984;SDS011;17387;42.690;23.328;2022-10-16T15:41:25;13.63;;;5.15;;
29984;SDS011;17387;42.690;23.328;2022-10-16T15:43:50;9.80;;;4.22;;
29984;SDS011;17387;42.690;23.328;2022-10-16T15:46:17;16.08;;;6.45;;
29984;SDS011;17387;42.690;23.328;2022-10-16T15:48:45;9.70;;;6.20;;
29984;SDS011;17387;42.690;23.328;2022-10-16T15:51:10;11.25;;;4.68;;
29984;SDS011;17387;42.690;23.328;2022-10-16T15:53:36;6.57;;;4.43;;
29984;SDS011;17387;42.690;23.328;2022-10-16T15:56:02;7.88;;;4.32;;
29984;SDS011;17387;42.690;23.328;2022-10-16T15:58:28;13.93;;;4.30;;
29984;SDS011;17387;42.690;23.328;2022-10-16T16:00:55;10.18;;;4.30;;
29984;SDS011;17387;42.690;23.328;2022-10-16T16:03:22;13.00;;;7.43;;
29984;SDS011;17387;42.690;23.328;2022-10-16T16:05:47;10.93;;;5.70;;
29984;SDS011;17387;42.690;23.328;2022-10-16T16:08:12;11.75;;;6.85;;
29984;SDS011;17387;42.690;23.328;2022-10-16T16:10:38;14.70;;;5.97;;
29984;SDS011;17387;42.690;23.328;2022-10-16T16:13:03;14.10;;;7.18;;
29984;SDS011;17387;42.690;23.328;2022-10-16T16:15:29;10.13;;;6.53;;
29984;SDS011;17387;42.690;23.328;2022-10-16T16:17:54;13.00;;;6.75;;
29984;SDS011;17387;42.690;23.328;2022-10-16T16:20:20;14.02;;;6.40;;
29984;SDS011;17387;42.690;23.328;2022-10-16T16:22:45;12.52;;;5.88;;
29984;SDS011;17387;42.690;23.328;2022-10-16T16:25:11;55.17;;;28.38;;
29984;SDS011;17387;42.690;23.328;2022-10-16T16:27:36;14.15;;;6.97;;
29984;SDS011;17387;42.690;23.328;2022-10-16T16:30:04;10.88;;;6.18;;
29984;SDS011;17387;42.690;23.328;2022-10-16T16:32:32;45.10;;;24.88;;
29984;SDS011;17387;42.690;23.328;2022-10-16T16:34:58;10.23;;;6.20;;
29984;SDS011;17387;42.690;23.328;2022-10-16T16:37:23;10.73;;;6.47;;
29984;SDS011;17387;42.690;23.328;2022-10-16T16:39:49;14.73;;;8.13;;
29984;SDS011;17387;42.690;23.328;2022-10-16T16:42:14;16.23;;;8.13;;
29984;SDS011;17387;42.690;23.328;2022-10-16T16:44:40;18.13;;;12.18;;
29984;SDS011;17387;42.690;23.328;2022-10-16T16:47:05;21.58;;;12.75;;
29984;SDS011;17387;42.690;23.328;2022-10-16T16:49:31;20.58;;;12.02;;
29984;SDS011;17387;42.690;23.328;2022-10-16T16:51:56;22.65;;;10.73;;
29984;SDS011;17387;42.690;23.328;2022-10-16T16:54:22;23.15;;;11.13;;
29984;SDS011;17387;42.690;23.328;2022-10-16T16:56:47;16.02;;;8.10;;
29984;SDS011;17387;42.690;23.328;2022-10-16T16:59:13;26.83;;;12.18;;
29984;SDS011;17387;42.690;23.328;2022-10-16T17:01:44;31.65;;;13.20;;
29984;SDS011;17387;42.690;23.328;2022-10-16T17:04:10;34.42;;;18.30;;
29984;SDS011;17387;42.690;23.328;2022-10-16T17:06:37;44.63;;;19.63;;
29984;SDS011;17387;42.690;23.328;2022-10-16T17:09:04;30.20;;;16.27;;
29984;SDS011;17387;42.690;23.328;2022-10-16T17:11:30;36.03;;;14.63;;
29984;SDS011;17387;42.690;23.328;2022-10-16T17:13:56;30.75;;;16.60;;
29984;SDS011;17387;42.690;23.328;2022-10-16T17:16:24;34.00;;;15.75;;
29984;SDS011;17387;42.690;23.328;2022-10-16T17:18:51;25.80;;;12.38;;
29984;SDS011;17387;42.690;23.328;2022-10-16T17:21:18;21.83;;;10.52;;
29984;SDS011;17387;42.690;23.328;2022-10-16T17:23:44;24.40;;;12.77;;